createdAt,value
2019-03-10T00:01:01.824Z,54.57
2019-03-10T00:06:08.920Z,54.79
2019-03-10T00:11:16.582Z,54.90
2019-03-10T00:16:34.205Z,54.65
2019-03-10T00:21:39.704Z,54.85
2019-03-10T00:26:49.468Z,54.72
2019-03-10T00:32:01.437Z,56.05
2019-03-10T00:37:10.729Z,55.49
2019-03-10T00:42:47.796Z,55.58
2019-03-10T00:48:13.241Z,56.40
2019-03-10T00:53:24.823Z,56.49
2019-03-10T00:58:34.097Z,55.78
2019-03-10T01:03:44.646Z,55.71
2019-03-10T01:08:55.638Z,56.48
2019-03-10T01:14:03.486Z,56.05
2019-03-10T01:19:13.951Z,56.85
2019-03-10T01:24:20.377Z,56.69
2019-03-10T01:29:29.783Z,57.12
2019-03-10T01:34:54.403Z,56.30
2019-03-10T01:40:02.179Z,57.10
2019-03-10T01:45:16.853Z,57.06
2019-03-10T01:50:25.089Z,56.69
2019-03-10T01:55:34.416Z,56.13
2019-03-10T02:00:49.438Z,56.18
2019-03-10T02:05:53.304Z,56.44
2019-03-10T02:10:59.642Z,55.97
2019-03-10T02:16:07.369Z,56.66
2019-03-10T02:21:16.770Z,56.21
2019-03-10T02:26:22.779Z,56.31
2019-03-10T02:31:32.158Z,56.27
2019-03-10T02:36:42.479Z,56.44
2019-03-10T02:41:52.447Z,56.50
2019-03-10T02:46:58.409Z,55.67
2019-03-10T02:52:06.538Z,56.59
2019-03-10T02:57:13.011Z,55.42
2019-03-10T03:02:20.840Z,55.67
2019-03-10T03:07:30.833Z,56.11
2019-03-10T03:12:43.495Z,55.79
2019-03-10T03:17:51.829Z,55.72
2019-03-10T03:22:59.514Z,55.09
2019-03-10T03:28:06.001Z,56.35
2019-03-10T03:33:21.073Z,57.23
2019-03-10T03:38:40.177Z,56.93
2019-03-10T03:43:46.600Z,56.66
2019-03-10T03:48:56.536Z,57.19
2019-03-10T03:54:06.182Z,57.37
2019-03-10T03:59:16.561Z,57.97
2019-03-10T04:04:29.621Z,58.61
2019-03-10T04:09:40.614Z,58.03
2019-03-10T04:14:49.086Z,59.28
2019-03-10T04:19:57.445Z,58.36
2019-03-10T04:25:08.712Z,58.77
2019-03-10T04:30:19.288Z,58.41
2019-03-10T04:35:26.476Z,58.65
2019-03-10T04:40:34.405Z,59.26
2019-03-10T04:45:47.872Z,57.46
2019-03-10T04:50:57.607Z,59.11
2019-03-10T04:56:13.016Z,58.67
2019-03-10T05:01:24.371Z,57.70
2019-03-10T05:06:34.337Z,57.72
2019-03-10T05:11:43.078Z,58.83
2019-03-10T05:16:50.852Z,60.32
2019-03-10T05:22:02.234Z,59.48
2019-03-10T05:27:10.422Z,60.16
2019-03-10T05:32:17.591Z,59.13
2019-03-10T05:37:24.628Z,59.31
2019-03-10T05:42:32.081Z,60.20
2019-03-10T05:47:42.056Z,59.04
2019-03-10T05:52:50.114Z,58.95
2019-03-10T05:57:56.153Z,58.61
2019-03-10T06:03:02.503Z,59.60
2019-03-10T06:08:08.523Z,58.26
2019-03-10T06:13:14.657Z,58.17
2019-03-10T06:18:21.714Z,57.58
2019-03-10T06:23:28.345Z,57.65
2019-03-10T06:28:34.112Z,57.87
2019-03-10T06:33:40.044Z,56.84
2019-03-10T06:38:46.712Z,56.95
2019-03-10T06:43:54.142Z,57.24
2019-03-10T06:49:00.169Z,57.15
2019-03-10T06:54:07.548Z,56.59
2019-03-10T06:59:13.299Z,55.69
2019-03-10T07:04:21.269Z,56.13
2019-03-10T07:09:28.458Z,56.02
2019-03-10T07:14:34.426Z,55.30
2019-03-10T07:19:40.511Z,55.06
2019-03-10T07:24:46.292Z,54.92
2019-03-10T07:29:56.731Z,55.05
2019-03-10T07:35:04.538Z,55.25
2019-03-10T07:40:12.007Z,55.10
2019-03-10T07:45:23.103Z,53.86
2019-03-10T07:50:34.225Z,54.95
2019-03-10T07:55:57.742Z,53.28
2019-03-10T08:01:17.090Z,54.16
2019-03-10T08:06:25.294Z,53.51
2019-03-10T08:11:49.776Z,53.80
2019-03-10T08:16:57.169Z,52.03
2019-03-10T08:22:11.513Z,51.90
2019-03-10T08:27:20.899Z,51.85
2019-03-10T08:32:31.791Z,50.75
2019-03-10T08:37:48.657Z,50.81
2019-03-10T08:43:05.611Z,49.65
2019-03-10T08:48:29.702Z,51.73
2019-03-10T08:53:40.421Z,50.56
2019-03-10T08:58:48.414Z,50.51
2019-03-10T09:03:56.098Z,50.17
2019-03-10T09:09:13.089Z,51.14
2019-03-10T09:14:22.565Z,50.17
2019-03-10T09:19:36.069Z,48.53
2019-03-10T09:24:55.083Z,48.07
2019-03-10T09:30:09.537Z,48.09
2019-03-10T09:35:26.971Z,47.38
2019-03-10T09:40:40.451Z,47.15
2019-03-10T09:45:47.790Z,46.71
2019-03-10T09:50:56.161Z,48.21
2019-03-10T09:56:10.355Z,47.05
2019-03-10T10:01:18.212Z,47.12
2019-03-10T10:06:26.774Z,48.24
2019-03-10T10:11:34.703Z,46.68
2019-03-10T10:16:41.950Z,46.37
2019-03-10T10:22:01.953Z,47.01
2019-03-10T10:27:27.304Z,48.52
2019-03-10T10:32:35.025Z,47.73
2019-03-10T10:37:56.738Z,48.24
2019-03-10T10:43:04.174Z,48.12
2019-03-10T10:48:25.086Z,48.86
2019-03-10T10:53:36.092Z,48.38
2019-03-10T10:58:47.084Z,48.04
2019-03-10T11:04:10.867Z,46.87
2019-03-10T11:09:22.299Z,48.47
2019-03-10T11:14:38.066Z,50.13
2019-03-10T11:19:49.520Z,50.68
2019-03-10T11:25:05.911Z,51.07
2019-03-10T11:30:18.511Z,51.66
2019-03-10T11:35:26.016Z,46.72
2019-03-10T11:40:33.580Z,49.47
2019-03-10T11:45:44.202Z,48.07
2019-03-10T11:51:07.769Z,46.28
2019-03-10T11:56:22.380Z,45.90
2019-03-10T12:01:29.793Z,47.47
2019-03-10T12:06:40.672Z,48.70
2019-03-10T12:11:47.384Z,47.28
2019-03-10T12:16:53.400Z,49.01
2019-03-10T12:21:59.495Z,49.61
2019-03-10T12:27:07.915Z,49.55
2019-03-10T12:32:13.575Z,48.48
2019-03-10T12:37:19.746Z,50.13
2019-03-10T12:42:25.804Z,51.78
2019-03-10T12:47:32.638Z,51.40
2019-03-10T12:52:38.528Z,51.02
2019-03-10T12:57:44.608Z,52.33
2019-03-10T13:02:52.054Z,52.61
2019-03-10T13:07:57.797Z,52.53
2019-03-10T13:13:04.149Z,51.92
2019-03-10T13:18:10.831Z,52.61
2019-03-10T13:23:16.544Z,53.24
2019-03-10T13:28:23.062Z,52.49
2019-03-10T13:33:30.209Z,51.69
2019-03-10T13:38:36.254Z,51.96
2019-03-10T13:43:42.126Z,53.50
2019-03-10T13:48:48.903Z,53.33
2019-03-10T13:53:56.602Z,54.66
2019-03-10T13:59:03.642Z,54.45
2019-03-10T14:04:11.532Z,54.64
2019-03-10T14:09:18.727Z,53.99
2019-03-10T14:14:25.261Z,54.57
2019-03-10T14:19:31.773Z,55.11
2019-03-10T14:24:39.006Z,54.40
2019-03-10T14:29:45.233Z,54.50
2019-03-10T14:34:52.802Z,55.07
2019-03-10T14:39:58.744Z,55.44
2019-03-10T14:45:09.254Z,54.60
2019-03-10T14:50:18.442Z,54.15
2019-03-10T14:55:25.596Z,53.06
2019-03-10T15:00:31.793Z,52.45
2019-03-10T15:05:37.781Z,52.47
2019-03-10T15:10:44.345Z,52.31
2019-03-10T15:15:52.133Z,53.43
2019-03-10T15:20:58.587Z,53.79
2019-03-10T15:26:04.615Z,54.11
2019-03-10T15:31:12.617Z,54.62
2019-03-10T15:36:20.943Z,54.40
2019-03-10T15:41:27.125Z,53.43
2019-03-10T15:46:33.362Z,53.98
2019-03-10T15:51:40.142Z,53.90
2019-03-10T15:56:46.409Z,54.15
2019-03-10T16:01:52.301Z,54.38
2019-03-10T16:06:59.449Z,54.05
2019-03-10T16:12:05.030Z,54.94
2019-03-10T16:17:11.787Z,55.38
2019-03-10T16:22:17.368Z,55.35
2019-03-10T16:27:23.161Z,54.84
2019-03-10T16:32:29.137Z,55.32
2019-03-10T16:37:35.893Z,55.70
2019-03-10T16:42:42.286Z,55.57
2019-03-10T16:47:50.168Z,54.05
2019-03-10T16:52:58.936Z,54.50
2019-03-10T16:58:04.986Z,53.99
2019-03-10T17:03:10.721Z,54.54
2019-03-10T17:08:17.507Z,54.78
2019-03-10T17:13:24.902Z,55.29
2019-03-10T17:18:31.414Z,55.62
2019-03-10T17:23:37.438Z,54.83
2019-03-10T17:28:44.963Z,54.81
2019-03-10T17:33:51.846Z,55.50
2019-03-10T17:38:57.790Z,55.60
2019-03-10T17:44:03.573Z,56.22
2019-03-10T17:49:09.132Z,54.83
2019-03-10T17:54:14.945Z,55.54
2019-03-10T17:59:20.785Z,55.87
2019-03-10T18:04:26.613Z,55.97
2019-03-10T18:09:32.163Z,56.98
2019-03-10T18:14:38.124Z,55.82
2019-03-10T18:19:45.778Z,55.82
2019-03-10T18:24:52.948Z,56.52
2019-03-10T18:29:58.662Z,56.45
2019-03-10T18:35:06.832Z,56.02
2019-03-10T18:40:18.858Z,57.86
2019-03-10T18:45:25.143Z,58.41
2019-03-10T18:50:31.587Z,58.20
2019-03-10T18:55:38.741Z,58.51
2019-03-10T19:00:46.366Z,58.04
2019-03-10T19:05:51.939Z,59.43
2019-03-10T19:10:58.210Z,59.37
2019-03-10T19:16:04.460Z,59.27
2019-03-10T19:21:11.755Z,60.88
2019-03-10T19:26:18.924Z,60.56
2019-03-10T19:31:25.007Z,60.95
2019-03-10T19:36:31.096Z,61.45
2019-03-10T19:41:36.961Z,61.06
2019-03-10T19:46:42.824Z,62.23
2019-03-10T19:51:48.698Z,63.16
2019-03-10T19:56:55.423Z,64.30
2019-03-10T20:02:01.230Z,66.42
2019-03-10T20:07:07.011Z,66.05
2019-03-10T20:12:14.271Z,67.03
2019-03-10T20:17:20.749Z,67.74
2019-03-10T20:22:26.586Z,68.35
2019-03-10T20:27:32.793Z,68.19
2019-03-10T20:32:38.666Z,67.60
2019-03-10T20:37:45.916Z,67.46
2019-03-10T20:42:51.619Z,69.49
2019-03-10T20:47:57.243Z,69.86
2019-03-10T20:53:02.949Z,69.79
2019-03-10T20:58:09.769Z,70.53
2019-03-10T21:03:15.544Z,70.11
2019-03-10T21:08:21.890Z,70.47
2019-03-10T21:13:27.530Z,71.70
2019-03-10T21:18:36.474Z,71.52
2019-03-10T21:23:42.844Z,71.55
2019-03-10T21:28:49.055Z,70.94
2019-03-10T21:33:55.220Z,70.59
2019-03-10T21:39:00.953Z,71.36
2019-03-10T21:44:11.639Z,69.90
2019-03-10T21:49:17.956Z,71.51
2019-03-10T21:54:23.588Z,71.14
2019-03-10T21:59:30.915Z,71.29
2019-03-10T22:04:37.679Z,71.73
2019-03-10T22:09:43.277Z,70.63
2019-03-10T22:14:48.962Z,71.31
2019-03-10T22:19:54.681Z,70.22
2019-03-10T22:25:12.173Z,70.77
2019-03-10T22:30:19.969Z,71.07
2019-03-10T22:35:25.571Z,70.62
2019-03-10T22:40:31.130Z,70.12
2019-03-10T22:45:38.307Z,69.18
2019-03-10T22:50:44.406Z,70.25
2019-03-10T22:55:50.647Z,68.97
2019-03-10T23:00:57.509Z,69.69
2019-03-10T23:06:04.690Z,70.16
2019-03-10T23:11:10.298Z,68.67
2019-03-10T23:16:16.061Z,69.28
2019-03-10T23:21:21.615Z,68.54
2019-03-10T23:26:27.182Z,67.87
2019-03-10T23:31:32.903Z,68.55
2019-03-10T23:36:38.581Z,68.80
2019-03-10T23:41:44.127Z,68.06
2019-03-10T23:46:50.588Z,68.35
2019-03-10T23:51:56.443Z,67.27
2019-03-10T23:57:03.841Z,67.37
